createdAt,value
2022-12-05T00:01:42.691Z,20.13
2022-12-05T00:04:13.037Z,33.60
2022-12-05T00:06:44.047Z,20.35
2022-12-05T00:09:13.991Z,19.17
2022-12-05T00:11:44.093Z,16.75
2022-12-05T00:14:13.358Z,16.67
2022-12-05T00:16:44.171Z,18.75
2022-12-05T00:19:14.601Z,20.98
2022-12-05T00:21:44.892Z,19.88
2022-12-05T00:24:16.707Z,20.85
2022-12-05T00:26:45.398Z,20.08
2022-12-05T00:29:13.948Z,28.02
2022-12-05T00:31:42.619Z,26.48
2022-12-05T00:34:11.263Z,22.70
2022-12-05T00:36:39.681Z,21.10
2022-12-05T00:39:11.663Z,20.05
2022-12-05T00:41:40.040Z,37.45
2022-12-05T00:44:08.729Z,17.50
2022-12-05T00:46:38.127Z,21.27
2022-12-05T00:49:08.529Z,20.00
2022-12-05T00:51:39.121Z,21.27
2022-12-05T00:54:11.301Z,18.13
2022-12-05T00:56:39.801Z,21.60
2022-12-05T00:59:09.185Z,18.25
2022-12-05T01:01:39.944Z,19.42
2022-12-05T01:04:11.374Z,15.90
2022-12-05T01:06:40.856Z,21.10
2022-12-05T01:09:12.890Z,24.65
2022-12-05T01:11:41.824Z,17.40
2022-12-05T01:14:10.343Z,30.30
2022-12-05T01:16:41.270Z,19.10
2022-12-05T01:19:13.590Z,32.20
2022-12-05T01:21:42.638Z,22.77
2022-12-05T01:24:13.569Z,27.45
2022-12-05T01:26:42.281Z,22.98
2022-12-05T01:29:11.494Z,33.75
2022-12-05T01:31:40.268Z,21.58
2022-12-05T01:34:11.481Z,27.42
2022-12-05T01:36:40.723Z,27.63
2022-12-05T01:39:10.544Z,24.20
2022-12-05T01:41:42.125Z,32.53
2022-12-05T01:44:48.639Z,32.80
2022-12-05T01:47:19.194Z,35.95
2022-12-05T01:49:47.693Z,42.97
2022-12-05T01:52:20.322Z,44.40
2022-12-05T01:54:52.428Z,44.15
2022-12-05T01:57:23.395Z,57.22
2022-12-05T01:59:57.318Z,45.75
2022-12-05T02:02:26.556Z,41.92
2022-12-05T02:05:02.918Z,62.45
2022-12-05T02:07:33.843Z,52.22
2022-12-05T02:10:02.285Z,55.30
2022-12-05T02:12:32.134Z,47.97
2022-12-05T02:15:23.427Z,36.40
2022-12-05T02:18:04.015Z,20.38
2022-12-05T02:20:42.826Z,25.40
2022-12-05T02:23:34.266Z,25.35
2022-12-05T02:26:37.823Z,19.73
2022-12-05T02:29:35.251Z,23.48
2022-12-05T02:32:12.547Z,30.45
2022-12-05T02:34:51.872Z,29.40
2022-12-05T02:37:29.373Z,36.65
2022-12-05T02:40:05.357Z,23.50
2022-12-05T02:42:39.877Z,23.20
2022-12-05T02:45:12.871Z,19.48
2022-12-05T02:47:48.088Z,20.15
2022-12-05T02:50:21.674Z,27.23
2022-12-05T02:52:53.032Z,21.38
2022-12-05T02:55:23.792Z,25.10
2022-12-05T02:57:56.943Z,26.33
2022-12-05T03:00:25.611Z,26.98
2022-12-05T03:02:59.821Z,23.48
2022-12-05T03:05:36.499Z,24.73
2022-12-05T03:08:08.235Z,23.92
2022-12-05T03:10:42.019Z,22.98
2022-12-05T03:13:16.222Z,27.10
2022-12-05T03:15:49.845Z,23.15
2022-12-05T03:18:25.707Z,19.45
2022-12-05T03:20:59.424Z,20.63
2022-12-05T03:26:12.126Z,20.08
2022-12-05T03:28:51.921Z,18.15
2022-12-05T03:31:27.136Z,15.77
2022-12-05T03:34:00.753Z,18.17
2022-12-05T03:36:36.328Z,16.25
2022-12-05T03:39:09.710Z,20.90
2022-12-05T03:41:44.132Z,22.35
2022-12-05T03:44:19.385Z,23.02
2022-12-05T03:46:53.717Z,27.80
2022-12-05T03:49:34.061Z,17.20
2022-12-05T03:52:08.277Z,27.33
2022-12-05T03:54:42.345Z,23.42
2022-12-05T03:57:16.681Z,19.85
2022-12-05T03:59:48.916Z,19.50
2022-12-05T04:02:23.338Z,17.55
2022-12-05T04:04:58.981Z,19.17
2022-12-05T04:07:30.545Z,15.18
2022-12-05T04:10:03.819Z,19.98
2022-12-05T04:12:34.899Z,17.83
2022-12-05T04:15:09.543Z,16.63
2022-12-05T04:17:49.150Z,18.73
2022-12-05T04:20:42.953Z,18.38
2022-12-05T04:23:11.943Z,18.92
2022-12-05T04:25:49.681Z,16.88
2022-12-05T04:28:28.295Z,21.52
2022-12-05T04:31:04.332Z,18.60
2022-12-05T04:33:40.276Z,17.70
2022-12-05T04:36:15.421Z,17.48
2022-12-05T04:38:48.951Z,19.75
2022-12-05T04:41:23.996Z,15.02
2022-12-05T04:43:55.964Z,17.90
2022-12-05T04:46:25.789Z,17.88
2022-12-05T04:48:58.591Z,20.90
2022-12-05T04:51:31.811Z,17.98
2022-12-05T04:54:04.772Z,16.75
2022-12-05T04:56:38.325Z,17.48
2022-12-05T04:59:07.014Z,15.05
2022-12-05T05:01:40.361Z,15.15
2022-12-05T05:04:12.704Z,17.85
2022-12-05T05:06:43.440Z,17.38
2022-12-05T05:09:12.327Z,15.82
2022-12-05T05:11:41.120Z,12.98
2022-12-05T05:14:09.940Z,16.58
2022-12-05T05:16:41.845Z,17.02
2022-12-05T05:19:12.230Z,16.17
2022-12-05T05:21:44.040Z,18.63
2022-12-05T05:24:13.381Z,20.13
2022-12-05T05:26:44.457Z,17.33
2022-12-05T05:29:13.642Z,15.02
2022-12-05T05:31:43.085Z,21.48
2022-12-05T05:34:12.122Z,17.15
2022-12-05T05:36:41.905Z,20.70
2022-12-05T05:39:13.784Z,17.42
2022-12-05T05:41:42.386Z,17.52
2022-12-05T05:44:10.754Z,16.85
2022-12-05T05:46:39.928Z,21.42
2022-12-05T05:49:08.346Z,35.58
2022-12-05T05:51:37.012Z,33.53
2022-12-05T05:54:06.967Z,27.13
2022-12-05T05:56:35.329Z,26.33
2022-12-05T05:59:05.380Z,18.05
2022-12-05T06:01:33.883Z,21.55
2022-12-05T06:04:02.421Z,18.05
2022-12-05T06:06:30.917Z,16.55
2022-12-05T06:08:59.365Z,16.55
2022-12-05T06:11:30.034Z,18.88
2022-12-05T06:14:01.288Z,16.13
2022-12-05T06:16:30.534Z,13.05
2022-12-05T06:18:58.974Z,16.20
2022-12-05T06:21:28.049Z,13.80
2022-12-05T06:23:57.025Z,14.75
2022-12-05T06:26:25.737Z,13.52
2022-12-05T06:28:57.751Z,14.00
2022-12-05T06:31:31.291Z,16.40
2022-12-05T06:34:02.426Z,16.75
2022-12-05T06:36:32.243Z,18.92
2022-12-05T06:39:02.180Z,14.55
2022-12-05T06:41:30.545Z,19.75
2022-12-05T06:44:02.540Z,14.45
2022-12-05T06:46:31.935Z,13.90
2022-12-05T06:49:01.228Z,15.20
2022-12-05T06:51:29.595Z,16.70
2022-12-05T06:53:58.083Z,15.32
2022-12-05T06:56:26.458Z,16.52
2022-12-05T06:58:55.857Z,13.52
2022-12-05T07:01:41.530Z,14.90
2022-12-05T07:04:13.911Z,11.93
2022-12-05T07:06:48.743Z,14.13
2022-12-05T07:09:20.032Z,9.38
2022-12-05T07:11:49.765Z,6.85
2022-12-05T07:14:45.355Z,11.85
2022-12-05T07:17:08.493Z,5.70
2022-12-05T07:19:37.025Z,5.85
2022-12-05T07:22:09.377Z,4.68
2022-12-05T07:24:40.451Z,5.07
2022-12-05T07:27:09.154Z,4.53
2022-12-05T07:29:37.545Z,8.75
2022-12-05T07:32:08.174Z,5.68
2022-12-05T07:34:36.761Z,4.43
2022-12-05T07:37:05.135Z,4.13
2022-12-05T07:39:33.552Z,6.55
2022-12-05T07:42:01.900Z,5.28
2022-12-05T07:44:30.185Z,5.05
2022-12-05T07:46:59.303Z,5.80
2022-12-05T07:49:29.378Z,5.82
2022-12-05T07:51:58.496Z,5.10
2022-12-05T07:54:27.343Z,4.00
2022-12-05T07:56:55.606Z,4.72
2022-12-05T07:59:23.971Z,4.05
2022-12-05T08:01:52.413Z,3.47
2022-12-05T08:04:20.756Z,3.65
2022-12-05T08:06:50.544Z,3.70
2022-12-05T08:09:18.858Z,4.03
2022-12-05T08:11:52.162Z,4.22
2022-12-05T08:16:49.365Z,4.70
2022-12-05T08:19:18.095Z,4.18
2022-12-05T08:21:46.697Z,4.95
2022-12-05T08:24:17.148Z,4.78
2022-12-05T08:26:45.477Z,5.07
2022-12-05T08:29:15.988Z,5.78
2022-12-05T08:31:47.356Z,9.35
2022-12-05T08:34:17.061Z,6.05
2022-12-05T08:36:46.238Z,8.57
2022-12-05T08:39:17.907Z,5.57
2022-12-05T08:41:47.546Z,8.40
2022-12-05T08:44:18.863Z,10.23
2022-12-05T08:46:48.620Z,7.00
2022-12-05T08:49:17.379Z,11.90
2022-12-05T08:51:46.015Z,7.72
2022-12-05T08:54:16.354Z,7.05
2022-12-05T08:56:44.714Z,6.53
2022-12-05T08:59:13.160Z,5.03
2022-12-05T09:01:42.466Z,4.45
2022-12-05T09:04:12.535Z,4.32
2022-12-05T09:06:42.019Z,6.13
2022-12-05T09:09:12.665Z,5.10
2022-12-05T09:11:46.876Z,4.70
2022-12-05T09:14:15.957Z,4.35
2022-12-05T09:16:45.992Z,4.97
2022-12-05T09:19:16.082Z,4.88
2022-12-05T09:21:45.439Z,4.95
2022-12-05T09:24:15.469Z,5.28
2022-12-05T09:26:45.953Z,4.40
2022-12-05T09:29:17.034Z,4.38
2022-12-05T09:31:46.845Z,4.45
2022-12-05T09:34:15.692Z,5.40
2022-12-05T09:36:44.196Z,5.70
2022-12-05T09:39:12.904Z,5.93
2022-12-05T09:42:13.244Z,6.10
2022-12-05T09:44:45.825Z,7.40
2022-12-05T09:47:22.749Z,6.97
2022-12-05T09:49:55.527Z,8.93
2022-12-05T09:52:28.383Z,6.73
2022-12-05T09:54:57.369Z,8.67
2022-12-05T09:57:34.984Z,7.78
2022-12-05T10:00:05.683Z,7.40
2022-12-05T10:02:43.678Z,6.47
2022-12-05T10:05:20.060Z,6.13
2022-12-05T10:07:56.970Z,7.90
2022-12-05T10:10:34.944Z,8.45
2022-12-05T10:13:24.870Z,7.20
2022-12-05T10:15:57.569Z,6.70
2022-12-05T10:18:34.619Z,8.85
2022-12-05T10:21:07.621Z,8.38
2022-12-05T10:23:59.603Z,8.38
2022-12-05T10:26:31.620Z,9.85
2022-12-05T10:29:13.926Z,11.25
2022-12-05T10:31:45.142Z,9.02
2022-12-05T10:34:18.259Z,7.53
2022-12-05T10:37:07.127Z,7.20
2022-12-05T10:39:36.003Z,11.63
2022-12-05T10:42:05.183Z,12.52
2022-12-05T10:44:35.485Z,11.30
2022-12-05T10:47:04.576Z,12.40
2022-12-05T10:49:34.639Z,8.35
2022-12-05T10:52:03.354Z,7.40
2022-12-05T10:54:38.519Z,8.35
2022-12-05T10:57:22.509Z,14.02
2022-12-05T11:02:27.357Z,11.35
2022-12-05T11:04:56.581Z,13.45
2022-12-05T11:07:30.273Z,22.20
2022-12-05T11:12:30.794Z,16.38
2022-12-05T11:15:04.276Z,12.65
2022-12-05T11:17:35.740Z,10.40
2022-12-05T11:20:25.308Z,11.60
2022-12-05T11:22:57.051Z,18.45
2022-12-05T11:25:30.680Z,25.08
2022-12-05T11:28:01.597Z,21.13
2022-12-05T11:30:31.407Z,15.35
2022-12-05T11:33:21.793Z,10.13
2022-12-05T11:35:53.707Z,10.07
2022-12-05T11:38:29.528Z,6.70
2022-12-05T11:41:10.396Z,9.35
2022-12-05T11:44:06.889Z,14.45
2022-12-05T11:46:50.309Z,18.75
2022-12-05T11:49:44.858Z,9.75
2022-12-05T11:52:26.000Z,7.28
2022-12-05T11:55:06.350Z,4.88
2022-12-05T11:58:01.318Z,4.35
2022-12-05T12:00:38.157Z,6.68
2022-12-05T12:03:38.322Z,5.50
2022-12-05T12:06:23.267Z,6.85
2022-12-05T12:09:04.926Z,7.57
2022-12-05T12:11:44.785Z,9.73
2022-12-05T12:14:21.393Z,15.25
2022-12-05T12:16:59.431Z,5.32
2022-12-05T12:19:43.907Z,4.20
2022-12-05T12:22:40.536Z,3.45
2022-12-05T12:25:36.776Z,4.03
2022-12-05T12:28:22.240Z,3.30
2022-12-05T12:31:05.819Z,3.70
2022-12-05T12:33:37.836Z,3.08
2022-12-05T12:36:17.346Z,2.95
2022-12-05T12:39:06.043Z,4.05
2022-12-05T12:42:05.588Z,3.08
2022-12-05T12:44:54.813Z,3.67
2022-12-05T12:47:40.244Z,2.88
2022-12-05T12:50:16.612Z,2.95
2022-12-05T12:53:02.438Z,4.45
2022-12-05T12:55:39.290Z,4.47
2022-12-05T12:58:18.694Z,4.65
2022-12-05T13:00:59.588Z,6.57
2022-12-05T13:03:33.207Z,2.40
2022-12-05T13:06:06.068Z,2.20
2022-12-05T13:08:42.638Z,2.33
2022-12-05T13:11:15.356Z,2.35
2022-12-05T13:13:49.280Z,5.63
2022-12-05T13:16:27.246Z,2.53
2022-12-05T13:18:57.611Z,3.95
2022-12-05T13:21:27.633Z,4.03
2022-12-05T13:24:03.620Z,3.72
2022-12-05T13:26:34.471Z,4.28
2022-12-05T13:29:04.519Z,2.70
2022-12-05T13:31:40.043Z,3.88
2022-12-05T13:34:29.446Z,2.63
2022-12-05T13:37:17.245Z,3.33
2022-12-05T13:40:10.855Z,2.88
2022-12-05T13:42:39.450Z,2.40
2022-12-05T13:45:11.276Z,3.25
2022-12-05T13:47:56.278Z,4.13
2022-12-05T13:50:35.163Z,3.67
2022-12-05T13:53:07.916Z,3.35
2022-12-05T13:55:38.884Z,5.03
2022-12-05T13:58:42.691Z,5.78
2022-12-05T14:01:55.647Z,12.73
2022-12-05T14:04:50.793Z,6.85
2022-12-05T14:07:45.820Z,10.95
2022-12-05T14:10:16.858Z,7.25
2022-12-05T14:12:49.651Z,6.38
2022-12-05T14:15:32.803Z,6.13
2022-12-05T14:18:16.966Z,6.20
2022-12-05T14:21:05.015Z,6.95
2022-12-05T14:23:50.342Z,6.65
2022-12-05T14:26:58.111Z,8.48
2022-12-05T14:29:41.110Z,6.47
2022-12-05T14:32:21.482Z,6.18
2022-12-05T14:34:57.254Z,7.80
2022-12-05T14:37:30.215Z,8.15
2022-12-05T14:40:02.250Z,7.15
2022-12-05T14:42:45.323Z,7.63
2022-12-05T14:45:28.042Z,11.82
2022-12-05T14:47:59.143Z,11.40
2022-12-05T14:50:43.496Z,8.23
2022-12-05T14:53:30.376Z,7.75
2022-12-05T14:56:10.680Z,8.27
2022-12-05T14:58:45.870Z,6.05
2022-12-05T15:01:20.290Z,4.82
2022-12-05T15:04:11.503Z,5.05
2022-12-05T15:06:49.260Z,6.15
2022-12-05T15:09:45.241Z,5.90
2022-12-05T15:12:20.724Z,4.38
2022-12-05T15:14:56.754Z,7.00
2022-12-05T15:17:32.201Z,6.47
2022-12-05T15:20:05.963Z,11.70
2022-12-05T15:25:25.619Z,4.82
2022-12-05T15:28:01.799Z,5.65
2022-12-05T15:30:32.385Z,6.47
2022-12-05T15:33:01.304Z,5.90
2022-12-05T15:35:34.210Z,7.25
2022-12-05T15:38:09.612Z,5.35
2022-12-05T15:40:38.610Z,8.98
2022-12-05T15:43:32.900Z,7.38
2022-12-05T15:48:39.120Z,6.97
2022-12-05T15:51:07.573Z,7.82
2022-12-05T15:53:42.553Z,7.35
2022-12-05T15:56:17.422Z,25.38
2022-12-05T15:58:51.366Z,30.65
2022-12-05T16:01:23.360Z,31.25
2022-12-05T16:03:56.653Z,19.45
2022-12-05T16:06:31.405Z,19.83
2022-12-05T16:09:02.298Z,34.42
2022-12-05T16:11:30.594Z,42.10
2022-12-05T16:14:03.610Z,76.38
2022-12-05T16:16:35.975Z,39.45
2022-12-05T16:19:07.123Z,44.17
2022-12-05T16:21:39.125Z,28.95
2022-12-05T16:24:09.515Z,29.02
2022-12-05T16:26:42.550Z,31.95
2022-12-05T16:29:28.421Z,32.05
2022-12-05T16:31:59.320Z,24.02
2022-12-05T16:34:29.349Z,22.50
2022-12-05T16:36:59.312Z,20.00
2022-12-05T16:39:29.544Z,16.65
2022-12-05T16:41:58.644Z,14.85
2022-12-05T16:45:04.950Z,17.42
2022-12-05T16:47:56.903Z,11.20
2022-12-05T16:50:31.535Z,10.13
2022-12-05T16:53:05.063Z,12.82
2022-12-05T16:55:37.232Z,9.70
2022-12-05T16:58:06.723Z,7.70
2022-12-05T17:00:36.851Z,6.75
2022-12-05T17:03:32.400Z,7.70
2022-12-05T17:05:54.018Z,6.82
2022-12-05T17:08:22.783Z,5.10
2022-12-05T17:10:51.760Z,4.80
2022-12-05T17:13:21.154Z,5.38
2022-12-05T17:15:51.358Z,4.50
2022-12-05T17:18:25.312Z,4.07
2022-12-05T17:20:59.296Z,5.38
2022-12-05T17:23:28.102Z,4.82
2022-12-05T17:25:58.048Z,5.88
2022-12-05T17:28:27.615Z,4.93
2022-12-05T17:30:58.993Z,6.05
2022-12-05T17:33:27.463Z,6.88
2022-12-05T17:35:56.960Z,6.05
2022-12-05T17:38:25.334Z,6.35
2022-12-05T17:40:54.036Z,5.95
2022-12-05T17:43:25.271Z,6.70
2022-12-05T17:45:55.037Z,5.45
2022-12-05T17:48:26.428Z,7.22
2022-12-05T17:50:57.833Z,5.35
2022-12-05T17:53:26.278Z,6.07
2022-12-05T17:55:54.639Z,6.07
2022-12-05T17:58:23.014Z,6.55
2022-12-05T18:00:51.477Z,18.10
2022-12-05T18:03:20.452Z,6.35
2022-12-05T18:05:50.315Z,5.65
2022-12-05T18:08:20.329Z,4.90
2022-12-05T18:10:52.131Z,4.57
2022-12-05T18:13:20.977Z,4.60
2022-12-05T18:15:50.368Z,4.90
2022-12-05T18:18:19.780Z,3.90
2022-12-05T18:20:49.659Z,3.13
2022-12-05T18:23:18.243Z,3.90
2022-12-05T18:25:47.207Z,3.90
2022-12-05T18:28:17.981Z,3.97
2022-12-05T18:30:49.237Z,3.38
2022-12-05T18:33:18.209Z,3.17
2022-12-05T18:35:47.066Z,3.60
2022-12-05T18:38:16.921Z,3.60
2022-12-05T18:40:45.864Z,3.58
2022-12-05T18:43:15.369Z,3.40
2022-12-05T18:45:44.101Z,3.00
2022-12-05T18:51:09.748Z,3.08
2022-12-05T18:53:40.068Z,3.28
2022-12-05T18:56:22.311Z,6.20
2022-12-05T18:58:56.203Z,3.80
2022-12-05T19:01:24.947Z,3.47
2022-12-05T19:03:54.059Z,3.85
2022-12-05T19:06:24.444Z,5.05
2022-12-05T19:08:58.700Z,3.70
2022-12-05T19:11:29.052Z,4.47
2022-12-05T19:13:59.339Z,3.63
2022-12-05T19:16:30.168Z,4.07
2022-12-05T19:19:01.510Z,4.43
2022-12-05T19:21:33.111Z,5.90
2022-12-05T19:24:06.015Z,4.93
2022-12-05T19:26:36.971Z,5.82
2022-12-05T19:29:07.586Z,5.68
2022-12-05T19:31:37.730Z,5.40
2022-12-05T19:34:09.643Z,4.18
2022-12-05T19:36:40.972Z,3.13
2022-12-05T19:39:13.851Z,3.83
2022-12-05T19:41:45.431Z,3.45
2022-12-05T19:44:15.822Z,3.33
2022-12-05T19:46:45.880Z,3.08
2022-12-05T19:49:17.295Z,2.65
2022-12-05T19:51:49.100Z,3.40
2022-12-05T19:54:20.334Z,2.88
2022-12-05T19:56:50.138Z,2.17
2022-12-05T19:59:20.633Z,2.65
2022-12-05T20:01:50.393Z,3.28
2022-12-05T20:04:21.138Z,3.40
2022-12-05T20:06:51.928Z,3.75
2022-12-05T20:09:24.572Z,2.60
2022-12-05T20:11:56.116Z,3.30
2022-12-05T20:14:27.947Z,2.60
2022-12-05T20:16:57.685Z,2.75
2022-12-05T20:19:27.563Z,2.03
2022-12-05T20:21:56.205Z,2.30
2022-12-05T20:24:27.548Z,2.38
2022-12-05T20:26:58.134Z,2.05
2022-12-05T20:29:27.825Z,2.20
2022-12-05T20:31:58.949Z,2.40
2022-12-05T20:34:28.785Z,1.90
2022-12-05T20:36:59.765Z,2.17
2022-12-05T20:39:31.574Z,2.97
2022-12-05T20:42:01.346Z,3.85
2022-12-05T20:44:31.334Z,3.25
2022-12-05T20:47:01.034Z,3.70
2022-12-05T20:49:30.701Z,3.47
2022-12-05T20:52:00.562Z,3.13
2022-12-05T20:54:30.473Z,3.30
2022-12-05T20:57:00.740Z,3.97
2022-12-05T20:59:30.471Z,3.58
2022-12-05T21:02:00.230Z,3.78
2022-12-05T21:04:30.298Z,4.20
2022-12-05T21:07:00.014Z,2.78
2022-12-05T21:09:32.475Z,2.63
2022-12-05T21:12:01.961Z,2.20
2022-12-05T21:14:32.292Z,2.00
2022-12-05T21:17:02.535Z,2.40
2022-12-05T21:19:32.247Z,4.40
2022-12-05T21:22:02.597Z,4.78
2022-12-05T21:24:34.590Z,2.55
2022-12-05T21:27:04.162Z,2.55
2022-12-05T21:29:34.766Z,2.60
2022-12-05T21:32:04.452Z,3.33
2022-12-05T21:34:34.315Z,1.67
2022-12-05T21:37:04.839Z,1.88
2022-12-05T21:39:36.478Z,1.88
2022-12-05T21:42:06.010Z,1.77
2022-12-05T21:44:35.598Z,1.30
2022-12-05T21:47:05.774Z,1.65
2022-12-05T21:49:36.534Z,1.80
2022-12-05T21:52:06.291Z,1.38
2022-12-05T21:54:37.585Z,1.55
2022-12-05T21:57:05.969Z,2.75
2022-12-05T21:59:34.290Z,2.50
2022-12-05T22:02:02.804Z,2.35
2022-12-05T22:04:31.148Z,2.13
2022-12-05T22:06:59.463Z,1.73
2022-12-05T22:09:27.892Z,2.47
2022-12-05T22:11:58.379Z,2.15
2022-12-05T22:14:26.854Z,2.42
2022-12-05T22:16:55.461Z,2.17
2022-12-05T22:19:23.945Z,2.53
2022-12-05T22:21:52.544Z,2.35
2022-12-05T22:24:20.871Z,3.17
2022-12-05T22:26:49.113Z,2.50
2022-12-05T22:29:19.012Z,2.55
2022-12-05T22:31:47.421Z,3.05
2022-12-05T22:34:16.011Z,4.43
2022-12-05T22:36:44.340Z,1.85
2022-12-05T22:39:13.729Z,1.73
2022-12-05T22:41:42.077Z,2.20
2022-12-05T22:44:11.568Z,2.03
2022-12-05T22:46:41.582Z,3.88
2022-12-05T22:49:11.823Z,2.30
2022-12-05T22:51:40.126Z,1.92
2022-12-05T22:54:08.926Z,2.60
2022-12-05T22:56:37.637Z,2.55
2022-12-05T22:59:09.225Z,2.03
2022-12-05T23:01:42.798Z,2.60
2022-12-05T23:04:12.622Z,1.98
2022-12-05T23:06:41.245Z,1.55
2022-12-05T23:09:14.280Z,1.88
2022-12-05T23:11:42.752Z,1.60
2022-12-05T23:14:11.635Z,1.60
2022-12-05T23:16:40.340Z,1.60
2022-12-05T23:19:10.340Z,1.63
2022-12-05T23:21:41.028Z,2.50
2022-12-05T23:24:11.514Z,2.00
2022-12-05T23:26:43.234Z,2.05
2022-12-05T23:29:13.285Z,1.73
2022-12-05T23:31:42.169Z,1.52
2022-12-05T23:34:12.654Z,2.03
2022-12-05T23:36:41.199Z,1.92
2022-12-05T23:39:09.609Z,1.80
2022-12-05T23:41:38.449Z,2.20
2022-12-05T23:44:06.835Z,2.38
2022-12-05T23:46:35.460Z,2.00
2022-12-05T23:49:03.979Z,2.05
2022-12-05T23:51:34.150Z,1.50
2022-12-05T23:54:04.265Z,2.00
2022-12-05T23:56:34.759Z,1.70
2022-12-05T23:59:04.143Z,3.75
